createdAt,value
2023-05-03T00:02:23.573Z,2.25
2023-05-03T00:04:52.710Z,2.70
2023-05-03T00:07:19.397Z,2.95
2023-05-03T00:09:46.019Z,3.10
2023-05-03T00:12:12.662Z,2.97
2023-05-03T00:14:39.436Z,2.80
2023-05-03T00:17:06.975Z,2.95
2023-05-03T00:19:34.248Z,2.53
2023-05-03T00:22:01.599Z,2.78
2023-05-03T00:24:28.502Z,2.35
2023-05-03T00:26:55.527Z,2.10
2023-05-03T00:29:22.366Z,2.55
2023-05-03T00:31:49.129Z,2.17
2023-05-03T00:34:15.757Z,3.10
2023-05-03T00:36:42.323Z,2.25
2023-05-03T00:39:08.979Z,2.50
2023-05-03T00:41:35.700Z,2.00
2023-05-03T00:44:02.896Z,1.73
2023-05-03T00:46:29.742Z,2.50
2023-05-03T00:48:56.721Z,1.70
2023-05-03T00:51:23.790Z,2.15
2023-05-03T00:53:51.139Z,1.67
2023-05-03T00:56:20.088Z,1.80
2023-05-03T00:58:47.151Z,2.88
2023-05-03T01:01:13.811Z,1.52
2023-05-03T01:03:41.245Z,2.10
2023-05-03T01:06:31.467Z,1.90
2023-05-03T01:09:21.436Z,1.20
2023-05-03T01:12:19.482Z,1.50
2023-05-03T01:15:08.366Z,1.73
2023-05-03T01:17:50.019Z,1.50
2023-05-03T01:20:22.454Z,1.70
2023-05-03T01:22:58.175Z,1.30
2023-05-03T01:25:26.300Z,1.85
2023-05-03T01:30:23.579Z,1.45
2023-05-03T01:32:59.740Z,1.63
2023-05-03T01:35:47.555Z,1.30
2023-05-03T01:38:14.653Z,1.60
2023-05-03T01:40:46.779Z,1.80
2023-05-03T01:43:16.463Z,1.60
2023-05-03T01:45:43.974Z,1.42
2023-05-03T01:48:13.508Z,2.08
2023-05-03T01:50:40.122Z,1.90
2023-05-03T01:53:06.901Z,1.45
2023-05-03T01:55:33.566Z,1.58
2023-05-03T01:58:00.647Z,1.52
2023-05-03T02:00:27.326Z,2.38
2023-05-03T02:02:54.060Z,1.80
2023-05-03T02:05:20.662Z,1.90
2023-05-03T02:07:47.428Z,2.28
2023-05-03T02:10:14.031Z,1.80
2023-05-03T02:12:44.845Z,2.60
2023-05-03T02:15:12.588Z,1.65
2023-05-03T02:17:40.005Z,1.80
2023-05-03T02:20:07.283Z,1.70
2023-05-03T02:22:33.824Z,1.90
2023-05-03T02:25:00.377Z,2.08
2023-05-03T02:27:27.128Z,2.17
2023-05-03T02:29:53.734Z,2.38
2023-05-03T02:32:21.349Z,1.77
2023-05-03T02:34:49.588Z,1.90
2023-05-03T02:37:20.492Z,2.10
2023-05-03T02:39:47.480Z,2.20
2023-05-03T02:42:15.854Z,2.15
2023-05-03T02:44:43.975Z,1.90
2023-05-03T02:47:10.721Z,1.80
2023-05-03T02:49:40.174Z,1.95
2023-05-03T02:52:06.966Z,2.30
2023-05-03T02:54:33.585Z,1.70
2023-05-03T02:57:07.716Z,2.08
2023-05-03T02:59:34.353Z,1.73
2023-05-03T03:02:02.025Z,1.90
2023-05-03T03:04:32.480Z,1.30
2023-05-03T03:06:59.086Z,2.20
2023-05-03T03:09:25.687Z,1.98
2023-05-03T03:11:53.449Z,1.23
2023-05-03T03:14:20.891Z,2.13
2023-05-03T03:16:47.987Z,2.17
2023-05-03T03:19:14.592Z,1.90
2023-05-03T03:21:41.403Z,1.95
2023-05-03T03:24:09.109Z,1.98
2023-05-03T03:26:35.739Z,2.17
2023-05-03T03:29:02.709Z,2.38
2023-05-03T03:31:29.660Z,3.00
2023-05-03T03:33:56.330Z,2.50
2023-05-03T03:36:25.839Z,2.22
2023-05-03T03:38:52.786Z,2.45
2023-05-03T03:41:20.492Z,2.30
2023-05-03T03:43:47.426Z,2.38
2023-05-03T03:46:18.282Z,3.05
2023-05-03T03:48:47.035Z,2.78
2023-05-03T03:51:13.796Z,2.50
2023-05-03T03:53:45.520Z,2.10
2023-05-03T03:56:12.701Z,3.03
2023-05-03T03:58:40.528Z,2.33
2023-05-03T04:01:08.870Z,2.90
2023-05-03T04:03:36.535Z,2.38
2023-05-03T04:06:03.811Z,2.10
2023-05-03T04:08:30.615Z,2.20
2023-05-03T04:10:57.285Z,2.80
2023-05-03T04:13:25.015Z,2.70
2023-05-03T04:15:55.639Z,2.78
2023-05-03T04:18:22.645Z,3.25
2023-05-03T04:20:50.182Z,2.80
2023-05-03T04:23:17.028Z,3.03
2023-05-03T04:25:44.405Z,3.03
2023-05-03T04:28:12.796Z,3.53
2023-05-03T04:30:42.900Z,2.45
2023-05-03T04:33:09.923Z,2.83
2023-05-03T04:35:36.647Z,3.30
2023-05-03T04:38:08.727Z,2.28
2023-05-03T04:40:35.837Z,2.70
2023-05-03T04:43:07.115Z,2.42
2023-05-03T04:45:37.718Z,2.25
2023-05-03T04:48:06.947Z,2.50
2023-05-03T04:50:34.128Z,2.43
2023-05-03T04:53:00.838Z,2.42
2023-05-03T04:55:29.428Z,2.50
2023-05-03T04:57:58.552Z,2.75
2023-05-03T05:00:25.267Z,2.03
2023-05-03T05:02:58.277Z,2.17
2023-05-03T05:05:28.184Z,2.45
2023-05-03T05:07:54.816Z,2.85
2023-05-03T05:10:21.445Z,2.65
2023-05-03T05:12:48.379Z,2.90
2023-05-03T05:15:15.066Z,2.40
2023-05-03T05:17:45.100Z,2.80
2023-05-03T05:20:12.136Z,3.50
2023-05-03T05:22:41.159Z,2.92
2023-05-03T05:25:08.620Z,2.65
2023-05-03T05:27:35.386Z,2.83
2023-05-03T05:30:04.226Z,3.88
2023-05-03T05:32:32.369Z,2.60
2023-05-03T05:34:59.088Z,2.97
2023-05-03T05:37:27.853Z,3.42
2023-05-03T05:39:57.643Z,2.88
2023-05-03T05:42:27.708Z,2.70
2023-05-03T05:44:54.311Z,2.42
2023-05-03T05:47:21.598Z,2.90
2023-05-03T05:49:50.526Z,2.90
2023-05-03T05:52:17.151Z,3.40
2023-05-03T05:54:43.877Z,6.38
2023-05-03T05:57:10.601Z,4.25
2023-05-03T05:59:37.419Z,3.80
2023-05-03T06:02:04.314Z,2.65
2023-05-03T06:04:31.032Z,3.25
2023-05-03T06:06:58.052Z,4.25
2023-05-03T06:09:25.315Z,3.60
2023-05-03T06:11:56.259Z,3.42
2023-05-03T06:14:23.835Z,3.38
2023-05-03T06:16:50.419Z,4.32
2023-05-03T06:19:17.154Z,3.70
2023-05-03T06:21:43.888Z,4.50
2023-05-03T06:24:10.606Z,4.78
2023-05-03T06:26:37.210Z,4.45
2023-05-03T06:29:04.365Z,7.63
2023-05-03T06:31:31.096Z,6.72
2023-05-03T06:33:58.348Z,6.67
2023-05-03T06:36:25.886Z,7.97
2023-05-03T06:38:52.693Z,9.20
2023-05-03T06:41:19.418Z,7.43
2023-05-03T06:43:45.992Z,6.22
2023-05-03T06:46:12.686Z,6.40
2023-05-03T06:48:39.338Z,8.95
2023-05-03T06:51:06.152Z,9.40
2023-05-03T06:53:32.769Z,7.60
2023-05-03T06:55:59.346Z,9.82
2023-05-03T06:58:25.907Z,9.82
2023-05-03T07:00:53.036Z,8.85
2023-05-03T07:03:19.776Z,8.93
2023-05-03T07:05:46.588Z,7.95
2023-05-03T07:08:13.215Z,10.85
2023-05-03T07:10:39.845Z,9.13
2023-05-03T07:13:06.517Z,8.43
2023-05-03T07:15:33.409Z,10.15
2023-05-03T07:18:00.172Z,9.48
2023-05-03T07:20:26.857Z,9.00
2023-05-03T07:22:53.437Z,6.50
2023-05-03T07:25:20.095Z,7.18
2023-05-03T07:27:46.812Z,10.75
2023-05-03T07:30:13.760Z,8.77
2023-05-03T07:32:40.602Z,9.30
2023-05-03T07:35:07.869Z,8.27
2023-05-03T07:37:34.579Z,7.27
2023-05-03T07:40:01.351Z,8.55
2023-05-03T07:42:28.157Z,7.50
2023-05-03T07:44:54.711Z,6.10
2023-05-03T07:47:22.154Z,7.53
2023-05-03T07:49:49.025Z,9.63
2023-05-03T07:52:15.770Z,7.55
2023-05-03T07:54:42.433Z,6.40
2023-05-03T07:57:09.094Z,6.15
2023-05-03T07:59:35.689Z,7.20
2023-05-03T08:02:02.510Z,7.57
2023-05-03T08:04:29.467Z,7.10
2023-05-03T08:06:56.480Z,6.63
2023-05-03T08:09:23.203Z,18.02
2023-05-03T08:11:49.770Z,10.18
2023-05-03T08:14:16.410Z,6.90
2023-05-03T08:16:42.979Z,6.20
2023-05-03T08:19:09.642Z,7.55
2023-05-03T08:21:36.182Z,8.30
2023-05-03T08:24:02.858Z,6.00
2023-05-03T08:26:30.481Z,6.15
2023-05-03T08:28:57.131Z,7.88
2023-05-03T08:31:23.805Z,5.93
2023-05-03T08:33:50.388Z,7.32
2023-05-03T08:36:17.295Z,5.93
2023-05-03T08:38:43.982Z,6.95
2023-05-03T08:41:31.285Z,5.72
2023-05-03T08:44:00.507Z,5.25
2023-05-03T08:46:28.871Z,5.05
2023-05-03T08:48:56.396Z,6.68
2023-05-03T08:51:24.737Z,6.07
2023-05-03T08:53:51.659Z,5.40
2023-05-03T08:56:28.119Z,4.97
2023-05-03T08:58:55.034Z,4.75
2023-05-03T09:01:21.772Z,5.43
2023-05-03T09:03:50.771Z,4.40
2023-05-03T09:06:22.368Z,4.50
2023-05-03T09:08:49.196Z,7.07
2023-05-03T09:11:30.238Z,4.95
2023-05-03T09:14:12.738Z,5.15
2023-05-03T09:16:41.398Z,5.40
2023-05-03T09:19:08.906Z,5.30
2023-05-03T09:21:37.023Z,5.00
2023-05-03T09:24:16.550Z,5.38
2023-05-03T09:26:43.813Z,4.55
2023-05-03T09:29:10.407Z,9.63
2023-05-03T09:31:47.827Z,6.88
2023-05-03T09:34:21.849Z,5.43
2023-05-03T09:36:48.609Z,5.90
2023-05-03T09:39:19.081Z,6.03
2023-05-03T09:41:46.379Z,5.47
2023-05-03T09:44:13.200Z,4.90
2023-05-03T09:46:39.835Z,10.00
2023-05-03T09:49:06.945Z,7.20
2023-05-03T09:51:34.107Z,4.60
2023-05-03T09:54:01.214Z,5.05
2023-05-03T09:56:29.136Z,5.15
2023-05-03T09:58:55.741Z,5.57
2023-05-03T10:01:24.904Z,5.47
2023-05-03T10:03:52.319Z,4.88
2023-05-03T10:06:22.794Z,5.28
2023-05-03T10:08:53.480Z,4.70
2023-05-03T10:11:23.897Z,4.82
2023-05-03T10:13:50.585Z,6.20
2023-05-03T10:16:26.573Z,4.78
2023-05-03T10:18:59.802Z,5.35
2023-05-03T10:21:58.213Z,5.07
2023-05-03T10:24:24.980Z,4.13
2023-05-03T10:26:52.065Z,5.80
2023-05-03T10:29:33.829Z,4.63
2023-05-03T10:32:02.027Z,3.95
2023-05-03T10:37:03.349Z,3.05
2023-05-03T10:39:31.015Z,6.43
2023-05-03T10:42:09.060Z,10.77
2023-05-03T10:44:40.515Z,13.55
2023-05-03T10:47:13.633Z,12.35
2023-05-03T10:49:40.818Z,14.27
2023-05-03T10:52:35.254Z,14.20
2023-05-03T10:55:03.063Z,12.35
2023-05-03T10:57:32.170Z,9.57
2023-05-03T10:59:59.030Z,14.57
2023-05-03T11:02:37.885Z,15.95
2023-05-03T11:05:09.224Z,11.75
2023-05-03T11:07:35.922Z,13.27
2023-05-03T11:10:16.895Z,12.95
2023-05-03T11:12:43.549Z,14.30
2023-05-03T11:15:11.044Z,11.68
2023-05-03T11:17:38.835Z,13.13
2023-05-03T11:20:07.819Z,13.65
2023-05-03T11:22:36.305Z,16.13
2023-05-03T11:25:03.540Z,13.75
2023-05-03T11:27:30.631Z,14.85
2023-05-03T11:29:57.390Z,11.45
2023-05-03T11:32:27.974Z,11.10
2023-05-03T11:34:54.773Z,12.95
2023-05-03T11:37:21.453Z,11.70
2023-05-03T11:39:48.169Z,9.30
2023-05-03T11:42:14.809Z,11.43
2023-05-03T11:44:41.387Z,14.65
2023-05-03T11:47:08.356Z,12.77
2023-05-03T11:49:35.328Z,10.52
2023-05-03T11:52:02.149Z,11.43
2023-05-03T11:54:30.127Z,8.93
2023-05-03T11:56:58.486Z,7.90
2023-05-03T11:59:36.935Z,7.60
2023-05-03T12:02:03.849Z,5.45
2023-05-03T12:04:31.089Z,5.60
2023-05-03T12:06:58.279Z,4.93
2023-05-03T12:09:27.298Z,4.63
2023-05-03T12:11:55.367Z,3.35
2023-05-03T12:14:22.778Z,3.60
2023-05-03T12:16:52.177Z,4.63
2023-05-03T12:19:26.091Z,3.92
2023-05-03T12:22:04.686Z,3.80
2023-05-03T12:24:39.800Z,4.05
2023-05-03T12:27:08.639Z,3.40
2023-05-03T12:29:35.807Z,3.75
2023-05-03T12:32:03.777Z,3.30
2023-05-03T12:34:35.455Z,3.22
2023-05-03T12:37:04.859Z,3.95
2023-05-03T12:39:33.013Z,3.15
2023-05-03T12:44:29.711Z,3.55
2023-05-03T12:47:00.717Z,3.10
2023-05-03T12:49:27.892Z,3.00
2023-05-03T12:52:06.836Z,2.40
2023-05-03T12:54:42.322Z,2.05
2023-05-03T12:57:14.653Z,2.17
2023-05-03T12:59:43.394Z,2.53
2023-05-03T13:07:13.379Z,3.00
2023-05-03T13:12:27.956Z,2.67
2023-05-03T13:14:54.813Z,2.45
2023-05-03T13:17:21.771Z,2.67
2023-05-03T13:19:49.677Z,3.65
2023-05-03T13:22:17.176Z,4.05
2023-05-03T13:24:45.626Z,3.53
2023-05-03T13:27:12.755Z,4.40
2023-05-03T13:29:39.838Z,4.20
2023-05-03T13:32:07.146Z,4.43
2023-05-03T13:34:34.485Z,4.38
2023-05-03T13:37:04.696Z,4.40
2023-05-03T13:39:32.079Z,5.65
2023-05-03T13:41:58.784Z,6.10
2023-05-03T13:44:25.622Z,7.32
2023-05-03T13:46:52.799Z,6.28
2023-05-03T13:49:19.776Z,5.83
2023-05-03T13:51:46.501Z,4.88
2023-05-03T13:54:13.149Z,6.35
2023-05-03T13:56:39.738Z,5.50
2023-05-03T13:59:08.257Z,4.57
2023-05-03T14:01:34.920Z,5.55
2023-05-03T14:04:01.580Z,4.38
2023-05-03T14:06:29.286Z,5.00
2023-05-03T14:08:56.951Z,5.07
2023-05-03T14:11:24.180Z,3.85
2023-05-03T14:13:57.040Z,4.90
2023-05-03T14:16:39.218Z,5.30
2023-05-03T14:19:07.484Z,4.95
2023-05-03T14:21:34.244Z,3.85
2023-05-03T14:24:00.958Z,4.22
2023-05-03T14:26:27.649Z,5.07
2023-05-03T14:28:54.286Z,3.55
2023-05-03T14:31:21.088Z,3.45
2023-05-03T14:33:47.685Z,4.00
2023-05-03T14:36:14.492Z,3.25
2023-05-03T14:38:41.253Z,4.07
2023-05-03T14:41:07.838Z,3.90
2023-05-03T14:43:34.562Z,4.07
2023-05-03T14:46:01.116Z,2.83
2023-05-03T14:48:27.695Z,3.33
2023-05-03T14:50:54.447Z,3.63
2023-05-03T14:53:21.199Z,2.88
2023-05-03T14:55:47.836Z,2.30
2023-05-03T14:58:14.506Z,2.40
2023-05-03T15:00:41.650Z,2.63
2023-05-03T15:03:09.767Z,2.70
2023-05-03T15:08:08.447Z,2.45
2023-05-03T15:10:38.366Z,2.00
2023-05-03T15:13:04.989Z,2.50
2023-05-03T15:15:32.015Z,2.00
2023-05-03T15:17:58.659Z,2.78
2023-05-03T15:20:25.362Z,1.98
2023-05-03T15:22:51.927Z,2.13
2023-05-03T15:25:18.492Z,2.08
2023-05-03T15:27:45.112Z,1.85
2023-05-03T15:30:12.292Z,2.50
2023-05-03T15:32:39.069Z,1.90
2023-05-03T15:35:06.345Z,2.35
2023-05-03T15:37:35.134Z,2.33
2023-05-03T15:40:03.062Z,2.08
2023-05-03T15:42:29.772Z,2.10
2023-05-03T15:44:56.364Z,2.58
2023-05-03T15:47:23.001Z,2.63
2023-05-03T15:49:50.226Z,2.13
2023-05-03T15:52:16.870Z,3.63
2023-05-03T15:54:46.068Z,2.70
2023-05-03T15:57:12.741Z,2.13
2023-05-03T15:59:39.442Z,2.00
2023-05-03T16:02:07.215Z,2.83
2023-05-03T16:04:33.960Z,1.70
2023-05-03T16:07:00.581Z,2.08
2023-05-03T16:09:27.372Z,2.70
2023-05-03T16:11:53.995Z,1.60
2023-05-03T16:14:20.813Z,2.30
2023-05-03T16:16:48.497Z,1.75
2023-05-03T16:19:16.458Z,2.17
2023-05-03T16:21:43.675Z,2.05
2023-05-03T16:24:10.475Z,1.83
2023-05-03T16:26:37.257Z,1.98
2023-05-03T16:29:04.134Z,2.20
2023-05-03T16:31:31.441Z,1.98
2023-05-03T16:33:58.073Z,1.98
2023-05-03T16:36:24.703Z,2.05
2023-05-03T16:38:51.278Z,2.30
2023-05-03T16:41:17.865Z,2.10
2023-05-03T16:43:44.642Z,1.73
2023-05-03T16:46:11.206Z,1.80
2023-05-03T16:48:37.894Z,2.00
2023-05-03T16:51:04.672Z,2.08
2023-05-03T16:53:31.280Z,2.33
2023-05-03T16:55:57.876Z,1.70
2023-05-03T16:58:24.561Z,1.75
2023-05-03T17:00:51.491Z,1.60
2023-05-03T17:03:18.336Z,1.88
2023-05-03T17:05:45.138Z,1.73
2023-05-03T17:08:12.001Z,1.70
2023-05-03T17:10:38.715Z,1.98
2023-05-03T17:13:05.852Z,1.88
2023-05-03T17:15:32.848Z,1.87
2023-05-03T17:18:01.327Z,2.13
2023-05-03T17:20:30.391Z,1.73
2023-05-03T17:22:56.963Z,1.92
2023-05-03T17:25:23.585Z,2.17
2023-05-03T17:27:50.173Z,2.42
2023-05-03T17:30:17.804Z,2.30
2023-05-03T17:32:46.150Z,2.83
2023-05-03T17:35:13.334Z,2.33
2023-05-03T17:37:40.448Z,2.53
2023-05-03T17:40:07.671Z,2.70
2023-05-03T17:42:34.803Z,3.10
2023-05-03T17:45:01.913Z,2.08
2023-05-03T17:47:28.982Z,1.90
2023-05-03T17:49:55.978Z,2.37
2023-05-03T17:52:23.038Z,2.03
2023-05-03T17:54:49.803Z,2.00
2023-05-03T17:57:16.557Z,1.90
2023-05-03T17:59:43.166Z,1.80
2023-05-03T18:02:09.995Z,2.45
2023-05-03T18:04:36.711Z,2.22
2023-05-03T18:07:03.300Z,1.90
2023-05-03T18:09:29.902Z,2.20
2023-05-03T18:11:56.576Z,2.42
2023-05-03T18:14:23.230Z,1.98
2023-05-03T18:16:49.807Z,1.95
2023-05-03T18:19:16.404Z,2.13
2023-05-03T18:21:42.977Z,2.33
2023-05-03T18:24:09.553Z,1.75
2023-05-03T18:26:37.509Z,1.95
2023-05-03T18:29:04.141Z,1.67
2023-05-03T18:31:30.796Z,1.50
2023-05-03T18:33:58.879Z,1.60
2023-05-03T18:36:25.886Z,1.75
2023-05-03T18:38:52.553Z,1.80
2023-05-03T18:41:19.275Z,2.08
2023-05-03T18:43:46.738Z,1.80
2023-05-03T18:46:19.814Z,2.00
2023-05-03T18:48:47.846Z,2.25
2023-05-03T18:51:14.680Z,1.77
2023-05-03T18:53:41.279Z,1.50
2023-05-03T18:56:07.887Z,2.10
2023-05-03T18:58:34.476Z,1.80
2023-05-03T19:01:01.195Z,3.35
2023-05-03T19:03:28.680Z,1.67
2023-05-03T19:06:00.262Z,2.03
2023-05-03T19:08:27.269Z,1.50
2023-05-03T19:10:53.974Z,2.03
2023-05-03T19:13:20.583Z,2.13
2023-05-03T19:15:47.220Z,1.73
2023-05-03T19:18:16.076Z,1.92
2023-05-03T19:20:43.309Z,1.70
2023-05-03T19:23:09.916Z,1.75
2023-05-03T19:25:36.522Z,2.10
2023-05-03T19:28:03.362Z,2.00
2023-05-03T19:30:29.933Z,1.95
2023-05-03T19:32:56.686Z,2.38
2023-05-03T19:35:23.324Z,1.75
2023-05-03T19:37:49.899Z,2.38
2023-05-03T19:40:16.666Z,2.38
2023-05-03T19:42:43.284Z,1.80
2023-05-03T19:45:10.360Z,2.65
2023-05-03T19:47:36.925Z,2.65
2023-05-03T19:50:03.852Z,3.30
2023-05-03T19:52:30.657Z,3.33
2023-05-03T19:54:57.335Z,2.97
2023-05-03T19:57:24.298Z,3.95
2023-05-03T19:59:50.869Z,3.78
2023-05-03T20:02:17.645Z,3.42
2023-05-03T20:04:44.216Z,4.07
2023-05-03T20:07:10.797Z,3.58
2023-05-03T20:09:37.485Z,3.78
2023-05-03T20:12:04.429Z,3.55
2023-05-03T20:14:31.040Z,3.80
2023-05-03T20:16:57.625Z,3.67
2023-05-03T20:19:25.263Z,3.85
2023-05-03T20:21:51.969Z,3.55
2023-05-03T20:24:20.573Z,3.22
2023-05-03T20:26:47.157Z,4.00
2023-05-03T20:29:13.873Z,3.70
2023-05-03T20:31:40.568Z,3.65
2023-05-03T20:34:07.257Z,3.22
2023-05-03T20:36:33.984Z,3.40
2023-05-03T20:39:00.696Z,3.20
2023-05-03T20:41:27.287Z,2.67
2023-05-03T20:43:54.022Z,4.32
2023-05-03T20:46:20.782Z,3.72
2023-05-03T20:48:47.472Z,3.17
2023-05-03T20:51:14.262Z,2.90
2023-05-03T20:53:40.934Z,3.10
2023-05-03T20:56:07.991Z,3.25
2023-05-03T20:58:35.290Z,3.15
2023-05-03T21:01:04.784Z,3.05
2023-05-03T21:03:31.519Z,3.28
2023-05-03T21:05:58.473Z,3.03
2023-05-03T21:08:25.229Z,2.47
2023-05-03T21:10:52.545Z,3.45
2023-05-03T21:13:19.308Z,3.00
2023-05-03T21:15:46.128Z,2.88
2023-05-03T21:18:12.820Z,4.07
2023-05-03T21:20:39.512Z,2.72
2023-05-03T21:23:06.186Z,3.40
2023-05-03T21:25:32.911Z,2.80
2023-05-03T21:27:59.636Z,2.75
2023-05-03T21:30:26.227Z,2.97
2023-05-03T21:32:52.957Z,3.10
2023-05-03T21:35:20.145Z,2.80
2023-05-03T21:37:47.203Z,3.25
2023-05-03T21:40:14.697Z,2.70
2023-05-03T21:42:42.382Z,2.47
2023-05-03T21:45:10.099Z,3.05
2023-05-03T21:47:36.951Z,2.95
2023-05-03T21:50:04.997Z,3.08
2023-05-03T21:52:32.692Z,3.03
2023-05-03T21:54:59.370Z,3.70
2023-05-03T21:57:26.624Z,3.28
2023-05-03T21:59:53.717Z,3.10
2023-05-03T22:02:21.094Z,2.53
2023-05-03T22:04:49.070Z,2.67
2023-05-03T22:07:16.486Z,2.50
2023-05-03T22:09:47.082Z,3.40
2023-05-03T22:12:23.633Z,3.30
2023-05-03T22:14:51.262Z,3.08
2023-05-03T22:17:17.912Z,3.47
2023-05-03T22:19:44.704Z,3.50
2023-05-03T22:22:11.298Z,2.50
2023-05-03T22:24:38.208Z,2.95
2023-05-03T22:27:04.799Z,3.50
2023-05-03T22:29:31.492Z,2.78
2023-05-03T22:31:58.278Z,2.72
2023-05-03T22:34:25.044Z,2.92
2023-05-03T22:36:51.709Z,3.65
2023-05-03T22:39:18.389Z,2.55
2023-05-03T22:41:45.049Z,3.00
2023-05-03T22:44:12.012Z,2.20
2023-05-03T22:46:38.656Z,3.38
2023-05-03T22:49:05.431Z,2.83
2023-05-03T22:51:32.170Z,3.30
2023-05-03T22:53:58.803Z,2.53
2023-05-03T22:56:25.451Z,3.10
2023-05-03T22:58:52.074Z,2.97
2023-05-03T23:01:18.882Z,3.58
2023-05-03T23:03:45.771Z,3.28
2023-05-03T23:06:12.520Z,3.78
2023-05-03T23:08:39.410Z,4.15
2023-05-03T23:11:06.020Z,3.58
2023-05-03T23:13:32.634Z,2.85
2023-05-03T23:15:59.412Z,3.40
2023-05-03T23:18:26.129Z,3.30
2023-05-03T23:20:52.993Z,3.25
2023-05-03T23:23:19.635Z,3.47
2023-05-03T23:25:49.314Z,4.45
2023-05-03T23:28:15.904Z,3.90
2023-05-03T23:30:43.904Z,3.80
2023-05-03T23:35:38.458Z,3.72
2023-05-03T23:38:05.185Z,4.20
2023-05-03T23:40:31.892Z,3.83
2023-05-03T23:42:58.493Z,3.53
2023-05-03T23:45:25.139Z,3.60
2023-05-03T23:47:51.889Z,4.13
2023-05-03T23:50:19.196Z,4.75
2023-05-03T23:52:45.890Z,4.28
2023-05-03T23:55:12.494Z,4.97
2023-05-03T23:57:39.117Z,5.70
